Time;durP1;ratioP1;P1;durP2;ratioP2;P2;SDS_P1;SDS_P2;PMS_P1;PMS_P2;Temp;Humidity;BMP_temperature;BMP_pressure;BME280_temperature;BME280_humidity;BME280_pressure;Samples;Min_cycle;Max_cycle;Signal;HPM_P1;HPM_P2
2021/12/01 00:01:00;;;;;;;3.60;3.37;;;;;;;;;;4995408;28;20759;-45
2021/12/01 00:03:27;;;;;;;2.30;2.20;;;;;;;;;;4995585;28;20400;-44
2021/12/01 00:05:53;;;;;;;2.60;2.40;;;;;;;;;;4995367;28;20923;-44
2021/12/01 00:08:19;;;;;;;2.77;2.67;;;;;;;;;;4995138;28;20496;-45
2021/12/01 00:10:45;;;;;;;2.40;2.20;;;;;;;;;;4995415;28;20491;-44
2021/12/01 00:13:13;;;;;;;2.93;2.20;;;;;;;;;;4995642;28;20403;-45
2021/12/01 00:15:40;;;;;;;2.17;2.07;;;;;;;;;;4995397;28;20439;-44
2021/12/01 00:18:06;;;;;;;3.20;2.90;;;;;;;;;;4995765;28;20408;-45
2021/12/01 00:20:33;;;;;;;1.60;1.50;;;;;;;;;;4995003;28;20806;-47
2021/12/01 00:22:59;;;;;;;2.27;2.17;;;;;;;;;;4995693;28;20568;-46
2021/12/01 00:25:25;;;;;;;7.23;2.50;;;;;;;;;;4995143;28;20404;-46
2021/12/01 00:27:52;;;;;;;2.90;2.70;;;;;;;;;;4995081;28;20550;-45
2021/12/01 00:30:18;;;;;;;3.00;2.80;;;;;;;;;;4995201;28;20791;-45
2021/12/01 00:32:45;;;;;;;3.13;2.93;;;;;;;;;;4995170;28;20501;-45
2021/12/01 00:35:11;;;;;;;5.80;3.10;;;;;;;;;;4994106;28;20412;-46
2021/12/01 00:37:38;;;;;;;3.80;3.50;;;;;;;;;;4994055;28;20471;-45
2021/12/01 00:40:08;;;;;;;3.77;3.53;;;;;;;;;;4992670;28;20411;-46
2021/12/01 00:42:34;;;;;;;3.23;3.03;;;;;;;;;;4994018;28;20411;-46
2021/12/01 00:45:06;;;;;;;3.80;3.60;;;;;;;;;;4993904;28;20477;-46
2021/12/01 00:47:52;;;;;;;3.23;3.03;;;;;;;;;;4994311;28;20454;-45
2021/12/01 00:50:18;;;;;;;2.87;2.63;;;;;;;;;;4993586;28;20421;-46
2021/12/01 00:52:44;;;;;;;2.87;2.67;;;;;;;;;;4993672;28;20449;-46
2021/12/01 00:55:10;;;;;;;3.20;3.00;;;;;;;;;;4993663;28;20927;-46
2021/12/01 00:57:36;;;;;;;6.17;3.17;;;;;;;;;;4993738;28;20474;-46
2021/12/01 01:00:06;;;;;;;3.83;3.10;;;;;;;;;;4993474;28;20906;-46
2021/12/01 01:02:32;;;;;;;4.80;4.17;;;;;;;;;;4993590;28;20904;-46
2021/12/01 01:04:58;;;;;;;5.30;3.53;;;;;;;;;;4993564;28;20493;-46
2021/12/01 01:07:24;;;;;;;3.80;3.50;;;;;;;;;;4993483;28;20497;-46
2021/12/01 01:09:50;;;;;;;4.17;3.87;;;;;;;;;;4993218;28;20436;-46
2021/12/01 01:17:56;;;;;;;4.00;3.70;;;;;;;;;;4993632;28;20938;-46
2021/12/01 01:20:22;;;;;;;4.10;3.77;;;;;;;;;;4993094;28;20498;-46
2021/12/01 01:22:48;;;;;;;4.13;3.83;;;;;;;;;;4993238;28;20822;-46
2021/12/01 01:25:14;;;;;;;4.37;3.60;;;;;;;;;;4993134;28;20400;-46
2021/12/01 01:27:40;;;;;;;4.13;3.50;;;;;;;;;;4993013;28;20835;-46
2021/12/01 01:30:06;;;;;;;3.23;2.90;;;;;;;;;;4992885;28;20403;-46
2021/12/01 01:32:35;;;;;;;3.77;3.30;;;;;;;;;;4993089;28;20404;-46
2021/12/01 01:35:01;;;;;;;3.97;3.57;;;;;;;;;;4993026;28;20401;-46
2021/12/01 01:37:27;;;;;;;3.37;3.07;;;;;;;;;;4993052;28;20502;-46
2021/12/01 01:39:54;;;;;;;3.40;3.20;;;;;;;;;;4992719;28;20419;-46
2021/12/01 01:42:20;;;;;;;5.57;3.33;;;;;;;;;;4992888;28;20412;-46
2021/12/01 01:44:46;;;;;;;3.90;3.57;;;;;;;;;;4992835;28;20414;-46
2021/12/01 01:47:12;;;;;;;4.17;3.77;;;;;;;;;;4993024;28;20863;-46
2021/12/01 01:49:47;;;;;;;5.30;4.90;;;;;;;;;;4992437;28;20453;-46
2021/12/01 01:52:13;;;;;;;4.33;3.93;;;;;;;;;;4992688;28;20421;-46
2021/12/01 01:54:39;;;;;;;4.30;3.90;;;;;;;;;;4992621;28;20415;-46
2021/12/01 01:57:05;;;;;;;12.03;4.33;;;;;;;;;;4992767;28;20434;-46
2021/12/01 01:59:31;;;;;;;5.37;3.60;;;;;;;;;;4992672;28;20418;-46
2021/12/01 02:01:58;;;;;;;3.40;3.20;;;;;;;;;;4992089;28;20434;-47
2021/12/01 02:04:25;;;;;;;5.10;4.60;;;;;;;;;;4992086;28;20415;-46
2021/12/01 02:06:52;;;;;;;4.40;3.40;;;;;;;;;;4992015;28;21016;-47
2021/12/01 02:09:22;;;;;;;4.70;4.07;;;;;;;;;;4991697;28;20441;-46
2021/12/01 02:11:49;;;;;;;5.10;3.87;;;;;;;;;;4992495;28;20853;-47
2021/12/01 02:14:16;;;;;;;3.13;2.93;;;;;;;;;;4992505;28;20777;-46
2021/12/01 02:16:42;;;;;;;6.23;4.33;;;;;;;;;;4992417;28;20411;-46
2021/12/01 02:19:08;;;;;;;3.30;3.00;;;;;;;;;;4992511;28;20890;-46
2021/12/01 02:21:34;;;;;;;7.10;3.50;;;;;;;;;;4992146;28;20573;-47
2021/12/01 02:24:02;;;;;;;3.80;3.50;;;;;;;;;;4992247;28;20914;-46
2021/12/01 02:26:29;;;;;;;2.80;2.60;;;;;;;;;;4992321;28;20438;-46
2021/12/01 02:28:57;;;;;;;3.40;3.00;;;;;;;;;;4992354;28;20779;-46
2021/12/01 02:31:30;;;;;;;3.20;3.00;;;;;;;;;;4992056;28;20426;-47
2021/12/01 02:33:56;;;;;;;3.20;3.00;;;;;;;;;;4992341;28;20402;-46
2021/12/01 02:36:22;;;;;;;3.63;3.43;;;;;;;;;;4992232;28;20489;-47
2021/12/01 02:38:50;;;;;;;3.53;3.23;;;;;;;;;;4992251;28;20410;-46
2021/12/01 02:41:17;;;;;;;3.17;2.93;;;;;;;;;;4991985;28;20425;-47
2021/12/01 02:43:45;;;;;;;3.70;3.40;;;;;;;;;;4992151;28;20981;-47
2021/12/01 02:46:11;;;;;;;3.50;3.00;;;;;;;;;;4992209;28;20469;-47
2021/12/01 02:48:41;;;;;;;3.07;2.87;;;;;;;;;;4992223;28;20407;-47
2021/12/01 02:51:08;;;;;;;3.73;3.43;;;;;;;;;;4991861;28;20422;-46
2021/12/01 02:53:34;;;;;;;5.60;3.30;;;;;;;;;;4992016;28;20433;-47
2021/12/01 02:56:02;;;;;;;3.73;3.43;;;;;;;;;;4992120;28;20430;-47
2021/12/01 02:58:31;;;;;;;3.57;3.27;;;;;;;;;;4992123;28;20513;-46
2021/12/01 03:00:58;;;;;;;3.90;3.60;;;;;;;;;;4991803;28;20922;-47
2021/12/01 03:03:24;;;;;;;5.10;4.60;;;;;;;;;;4994755;28;20443;-47
2021/12/01 03:05:51;;;;;;;6.53;4.17;;;;;;;;;;4995784;28;20445;-47
2021/12/01 03:08:18;;;;;;;3.33;3.13;;;;;;;;;;4995741;28;20496;-47
2021/12/01 03:10:51;;;;;;;5.30;4.80;;;;;;;;;;4995439;28;20433;-46
2021/12/01 03:13:18;;;;;;;4.43;4.03;;;;;;;;;;4995687;28;20411;-46
2021/12/01 03:15:44;;;;;;;4.90;4.40;;;;;;;;;;4995621;28;20436;-46
2021/12/01 03:18:10;;;;;;;6.20;4.93;;;;;;;;;;4995590;28;20903;-47
2021/12/01 03:20:36;;;;;;;10.30;4.30;;;;;;;;;;4995212;28;20524;-47
2021/12/01 03:23:02;;;;;;;5.93;5.20;;;;;;;;;;4995432;28;20790;-47
2021/12/01 03:25:28;;;;;;;4.83;4.43;;;;;;;;;;4995476;28;20778;-47
2021/12/01 03:27:54;;;;;;;6.37;4.70;;;;;;;;;;4995390;28;20537;-47
2021/12/01 03:30:22;;;;;;;5.80;5.07;;;;;;;;;;4995109;28;20440;-48
2021/12/01 03:32:48;;;;;;;12.10;5.33;;;;;;;;;;4995343;28;20493;-47
2021/12/01 03:35:15;;;;;;;7.70;6.53;;;;;;;;;;4995234;28;20921;-46
2021/12/01 03:37:42;;;;;;;6.63;5.97;;;;;;;;;;4995242;28;20477;-47
2021/12/01 03:40:09;;;;;;;7.83;6.20;;;;;;;;;;4994969;28;20410;-47
2021/12/01 03:42:35;;;;;;;7.20;6.30;;;;;;;;;;4995221;28;20417;-47
2021/12/01 03:45:01;;;;;;;7.20;5.50;;;;;;;;;;4994939;28;20411;-46
2021/12/01 03:47:27;;;;;;;7.47;5.73;;;;;;;;;;4995019;28;21050;-47
2021/12/01 03:49:54;;;;;;;5.53;5.03;;;;;;;;;;4994763;28;20406;-47
2021/12/01 03:52:20;;;;;;;6.30;5.50;;;;;;;;;;4994892;28;20399;-47
2021/12/01 03:54:47;;;;;;;8.47;5.80;;;;;;;;;;4994881;28;20901;-48
2021/12/01 03:57:13;;;;;;;6.20;5.33;;;;;;;;;;4994926;28;20419;-47
2021/12/01 03:59:39;;;;;;;7.03;5.43;;;;;;;;;;4994616;28;20412;-47
2021/12/01 04:02:05;;;;;;;8.20;5.90;;;;;;;;;;4994683;28;20926;-47
2021/12/01 04:04:31;;;;;;;7.70;6.57;;;;;;;;;;4994890;28;20894;-46
2021/12/01 04:06:57;;;;;;;7.00;6.30;;;;;;;;;;4994611;28;20453;-47
2021/12/01 04:09:24;;;;;;;8.70;6.60;;;;;;;;;;4994770;28;20403;-47
2021/12/01 04:11:50;;;;;;;6.43;5.93;;;;;;;;;;4994370;28;20472;-47
2021/12/01 04:14:16;;;;;;;9.20;5.83;;;;;;;;;;4994328;28;20467;-47
2021/12/01 04:16:42;;;;;;;8.60;5.90;;;;;;;;;;4994754;28;20500;-47
2021/12/01 04:19:08;;;;;;;9.63;6.67;;;;;;;;;;4994478;28;20443;-46
2021/12/01 04:21:34;;;;;;;8.13;6.10;;;;;;;;;;4994174;28;20425;-47
2021/12/01 04:24:00;;;;;;;6.23;5.60;;;;;;;;;;4994391;28;20415;-47
2021/12/01 04:26:28;;;;;;;10.80;7.27;;;;;;;;;;4994305;28;20520;-47
2021/12/01 04:28:55;;;;;;;7.30;6.33;;;;;;;;;;4994212;28;20402;-46
2021/12/01 04:31:22;;;;;;;7.30;6.57;;;;;;;;;;4994093;28;20843;-47
2021/12/01 04:33:48;;;;;;;7.17;6.00;;;;;;;;;;4994116;28;20898;-47
2021/12/01 04:36:17;;;;;;;9.20;6.17;;;;;;;;;;4994193;28;20436;-47
2021/12/01 04:38:43;;;;;;;8.13;6.57;;;;;;;;;;4994110;28;20773;-47
2021/12/01 04:41:12;;;;;;;8.17;6.50;;;;;;;;;;4993779;28;20919;-48
2021/12/01 04:43:38;;;;;;;7.77;7.07;;;;;;;;;;4993907;28;20778;-47
2021/12/01 04:46:04;;;;;;;9.30;6.23;;;;;;;;;;4993994;28;20493;-47
2021/12/01 04:48:30;;;;;;;5.83;5.20;;;;;;;;;;4993823;28;20489;-47
2021/12/01 04:50:56;;;;;;;6.87;5.90;;;;;;;;;;4993583;28;20452;-46
2021/12/01 04:53:23;;;;;;;10.77;5.90;;;;;;;;;;4993667;28;20980;-47
2021/12/01 04:55:49;;;;;;;7.80;7.00;;;;;;;;;;4993768;28;20415;-46
2021/12/01 04:58:15;;;;;;;6.77;6.17;;;;;;;;;;4993782;28;20823;-47
2021/12/01 05:00:41;;;;;;;8.63;6.40;;;;;;;;;;4993491;28;20480;-47
2021/12/01 05:03:07;;;;;;;7.63;6.80;;;;;;;;;;4993527;28;20808;-46
2021/12/01 05:05:33;;;;;;;7.77;7.07;;;;;;;;;;4993805;28;20445;-47
2021/12/01 05:07:59;;;;;;;8.33;7.53;;;;;;;;;;4993500;28;20449;-47
2021/12/01 05:10:25;;;;;;;6.33;5.73;;;;;;;;;;4993669;28;20432;-47
2021/12/01 05:12:51;;;;;;;6.07;5.57;;;;;;;;;;4993509;28;20480;-48
2021/12/01 05:15:17;;;;;;;5.50;5.00;;;;;;;;;;4993390;28;20865;-48
2021/12/01 05:17:43;;;;;;;5.73;5.17;;;;;;;;;;4993379;28;20457;-46
2021/12/01 05:20:11;;;;;;;7.53;6.67;;;;;;;;;;4993053;28;20407;-47
2021/12/01 05:22:38;;;;;;;5.87;5.37;;;;;;;;;;4993344;28;20471;-47
2021/12/01 05:25:05;;;;;;;5.33;4.87;;;;;;;;;;4992547;28;20491;-46
2021/12/01 05:27:31;;;;;;;5.30;4.77;;;;;;;;;;4993199;28;20496;-47
2021/12/01 05:29:57;;;;;;;4.50;4.10;;;;;;;;;;4992897;28;20465;-47
2021/12/01 05:32:23;;;;;;;7.10;4.63;;;;;;;;;;4993150;28;20397;-47
2021/12/01 05:34:49;;;;;;;6.70;4.20;;;;;;;;;;4992991;28;20430;-47
2021/12/01 05:37:15;;;;;;;4.50;3.93;;;;;;;;;;4993068;28;20407;-47
2021/12/01 05:39:44;;;;;;;3.73;3.43;;;;;;;;;;4992708;28;20414;-47
2021/12/01 05:42:12;;;;;;;5.53;4.10;;;;;;;;;;4992896;28;20941;-47
2021/12/01 05:44:38;;;;;;;4.20;3.30;;;;;;;;;;4992940;28;20523;-46
2021/12/01 05:47:04;;;;;;;4.83;3.13;;;;;;;;;;4992791;28;20457;-48
2021/12/01 05:49:30;;;;;;;4.33;3.50;;;;;;;;;;4992850;28;20442;-47
2021/12/01 05:51:56;;;;;;;3.97;3.57;;;;;;;;;;4992539;28;20454;-46
2021/12/01 05:54:22;;;;;;;4.47;4.03;;;;;;;;;;4992564;28;20447;-47
2021/12/01 05:56:48;;;;;;;6.90;4.20;;;;;;;;;;4992787;28;20488;-48
2021/12/01 05:59:14;;;;;;;4.10;3.80;;;;;;;;;;4992718;28;20410;-47
2021/12/01 06:01:40;;;;;;;3.50;3.20;;;;;;;;;;4992380;28;20424;-47
2021/12/01 06:04:06;;;;;;;3.83;3.47;;;;;;;;;;4992582;28;20410;-46
2021/12/01 06:06:32;;;;;;;3.50;3.20;;;;;;;;;;4992534;28;20428;-48
2021/12/01 06:08:58;;;;;;;4.77;4.13;;;;;;;;;;4992954;28;20691;-47
2021/12/01 06:11:24;;;;;;;3.77;3.47;;;;;;;;;;4992293;28;20426;-47
2021/12/01 06:13:52;;;;;;;3.20;3.00;;;;;;;;;;4992471;28;20410;-46
2021/12/01 06:16:24;;;;;;;6.10;3.83;;;;;;;;;;4992467;28;20407;-47
2021/12/01 06:18:50;;;;;;;3.63;3.17;;;;;;;;;;4992487;28;20482;-47
2021/12/01 06:21:17;;;;;;;4.97;4.07;;;;;;;;;;4992064;28;20433;-47
2021/12/01 06:23:43;;;;;;;5.27;3.80;;;;;;;;;;4992462;28;20412;-47
2021/12/01 06:26:09;;;;;;;4.23;3.93;;;;;;;;;;4992402;28;20405;-47
2021/12/01 06:28:35;;;;;;;4.00;3.70;;;;;;;;;;4992371;28;20879;-47
2021/12/01 06:31:01;;;;;;;5.03;3.80;;;;;;;;;;4992051;28;20431;-47
2021/12/01 06:33:27;;;;;;;4.20;3.80;;;;;;;;;;4998639;28;20405;-49
2021/12/01 06:35:53;;;;;;;3.80;3.50;;;;;;;;;;4999311;28;20411;-48
2021/12/01 06:38:20;;;;;;;5.27;3.83;;;;;;;;;;5002530;28;20403;-48
2021/12/01 06:40:47;;;;;;;4.73;3.80;;;;;;;;;;5003072;28;20529;-49
2021/12/01 06:43:13;;;;;;;4.43;3.50;;;;;;;;;;5002176;28;20401;-47
2021/12/01 06:45:39;;;;;;;3.80;3.50;;;;;;;;;;5003478;28;20410;-49
2021/12/01 06:48:06;;;;;;;4.37;3.97;;;;;;;;;;5003590;28;20523;-48
2021/12/01 06:50:32;;;;;;;3.40;3.13;;;;;;;;;;5003173;28;20464;-49
2021/12/01 06:52:58;;;;;;;4.10;3.73;;;;;;;;;;5002452;28;20426;-47
2021/12/01 06:55:24;;;;;;;4.03;3.27;;;;;;;;;;5003444;28;20919;-47
2021/12/01 06:57:50;;;;;;;4.93;3.97;;;;;;;;;;5002671;28;20431;-47
2021/12/01 07:00:17;;;;;;;3.63;3.40;;;;;;;;;;5003334;28;20440;-49
2021/12/01 07:02:43;;;;;;;3.73;3.43;;;;;;;;;;5002099;28;20409;-49
2021/12/01 07:05:10;;;;;;;3.30;3.00;;;;;;;;;;4997615;28;20414;-48
2021/12/01 07:07:36;;;;;;;3.83;3.47;;;;;;;;;;4996786;28;20983;-49
2021/12/01 07:10:02;;;;;;;4.33;3.90;;;;;;;;;;4995926;28;20424;-49
2021/12/01 07:12:28;;;;;;;4.33;3.40;;;;;;;;;;4996729;28;20408;-48
2021/12/01 07:14:54;;;;;;;4.07;3.50;;;;;;;;;;4996116;28;20820;-48
2021/12/01 07:17:20;;;;;;;4.30;4.00;;;;;;;;;;4996265;28;20415;-48
2021/12/01 07:19:48;;;;;;;3.57;3.27;;;;;;;;;;4997061;28;20409;-48
2021/12/01 07:22:14;;;;;;;3.97;3.60;;;;;;;;;;4997031;28;20435;-48
2021/12/01 07:24:40;;;;;;;4.37;3.97;;;;;;;;;;4996017;28;20409;-48
2021/12/01 07:27:06;;;;;;;4.70;3.50;;;;;;;;;;4995437;28;20959;-47
2021/12/01 07:29:35;;;;;;;3.90;3.60;;;;;;;;;;4995343;28;20412;-48
2021/12/01 07:32:01;;;;;;;5.30;4.20;;;;;;;;;;4995149;28;20437;-49
2021/12/01 07:34:26;;;;;;;4.60;3.87;;;;;;;;;;4995231;28;20398;-48
2021/12/01 07:36:52;;;;;;;3.83;3.53;;;;;;;;;;4995464;28;20401;-47
2021/12/01 07:39:19;;;;;;;4.17;3.80;;;;;;;;;;4995237;28;20424;-47
2021/12/01 07:41:45;;;;;;;4.50;3.70;;;;;;;;;;4994940;28;20448;-47
2021/12/01 07:44:11;;;;;;;6.20;3.17;;;;;;;;;;4995513;28;20415;-48
2021/12/01 07:46:37;;;;;;;3.63;3.20;;;;;;;;;;4995319;28;20410;-49
2021/12/01 07:49:04;;;;;;;2.80;2.60;;;;;;;;;;4994336;28;20409;-49
2021/12/01 07:51:30;;;;;;;4.17;3.77;;;;;;;;;;4994707;28;20424;-48
2021/12/01 07:53:56;;;;;;;2.90;2.70;;;;;;;;;;4994918;28;20841;-49
2021/12/01 07:56:22;;;;;;;3.80;3.00;;;;;;;;;;4994917;28;20409;-47
2021/12/01 07:58:48;;;;;;;3.10;2.80;;;;;;;;;;4994865;28;20901;-49
2021/12/01 08:01:14;;;;;;;2.80;2.60;;;;;;;;;;4994447;28;20429;-48
2021/12/01 08:03:40;;;;;;;2.60;2.40;;;;;;;;;;4994884;28;20524;-47
2021/12/01 08:06:06;;;;;;;3.70;3.30;;;;;;;;;;4994940;28;20409;-49
2021/12/01 08:08:32;;;;;;;4.70;3.10;;;;;;;;;;4994655;28;20924;-49
2021/12/01 08:10:58;;;;;;;2.43;2.23;;;;;;;;;;4994387;28;20425;-49
2021/12/01 08:13:24;;;;;;;2.70;2.50;;;;;;;;;;4994552;28;20400;-49
2021/12/01 08:15:50;;;;;;;3.90;3.23;;;;;;;;;;4994584;28;20402;-49
2021/12/01 08:18:17;;;;;;;3.70;3.40;;;;;;;;;;4994480;28;20437;-49
2021/12/01 08:20:43;;;;;;;3.80;2.90;;;;;;;;;;4987154;28;20441;-47
2021/12/01 08:23:09;;;;;;;3.40;3.10;;;;;;;;;;4994375;28;20886;-47
2021/12/01 08:25:35;;;;;;;3.20;2.90;;;;;;;;;;4994318;28;20830;-47
2021/12/01 08:28:02;;;;;;;2.80;2.43;;;;;;;;;;4994245;28;20469;-47
2021/12/01 08:30:28;;;;;;;2.80;2.60;;;;;;;;;;4976292;28;20425;-48
2021/12/01 08:32:54;;;;;;;2.20;2.07;;;;;;;;;;4994070;28;20777;-47
2021/12/01 08:35:21;;;;;;;4.67;2.63;;;;;;;;;;4976709;28;20902;-47
2021/12/01 08:37:47;;;;;;;2.37;2.17;;;;;;;;;;4994198;28;20442;-50
2021/12/01 08:40:14;;;;;;;2.53;2.33;;;;;;;;;;4993780;28;20500;-48
2021/12/01 08:42:41;;;;;;;2.60;2.40;;;;;;;;;;4994099;28;20896;-47
2021/12/01 08:45:07;;;;;;;2.40;2.20;;;;;;;;;;4993773;28;20503;-48
2021/12/01 08:47:33;;;;;;;2.50;2.13;;;;;;;;;;4993858;28;20465;-48
2021/12/01 08:49:59;;;;;;;3.10;2.67;;;;;;;;;;4993913;28;20405;-49
2021/12/01 08:52:25;;;;;;;2.17;2.00;;;;;;;;;;4993837;28;20770;-47
2021/12/01 08:54:51;;;;;;;2.43;2.23;;;;;;;;;;4993739;28;20394;-48
2021/12/01 08:57:18;;;;;;;2.40;2.20;;;;;;;;;;4993744;28;20406;-47
2021/12/01 08:59:45;;;;;;;2.47;2.30;;;;;;;;;;4992372;28;20468;-47
2021/12/01 09:02:11;;;;;;;2.70;2.50;;;;;;;;;;4993525;28;20418;-49
2021/12/01 09:04:37;;;;;;;2.73;2.53;;;;;;;;;;4993548;28;20406;-50
2021/12/01 09:07:03;;;;;;;3.93;2.70;;;;;;;;;;4993471;28;20508;-49
2021/12/01 09:09:29;;;;;;;3.77;2.70;;;;;;;;;;4993537;28;20752;-49
2021/12/01 09:11:55;;;;;;;4.20;2.17;;;;;;;;;;4993264;28;20426;-47
2021/12/01 09:14:23;;;;;;;2.30;2.10;;;;;;;;;;4993113;28;20407;-49
2021/12/01 09:16:50;;;;;;;2.70;2.20;;;;;;;;;;4993383;28;20442;-48
2021/12/01 09:19:16;;;;;;;2.03;1.93;;;;;;;;;;4993144;28;20986;-50
2021/12/01 09:21:42;;;;;;;2.60;2.10;;;;;;;;;;4992832;28;20430;-47
2021/12/01 09:24:08;;;;;;;1.77;1.67;;;;;;;;;;4975525;28;20418;-49
2021/12/01 09:26:34;;;;;;;2.23;2.13;;;;;;;;;;4993140;28;20419;-48
2021/12/01 09:29:02;;;;;;;2.20;2.07;;;;;;;;;;4992977;28;20410;-49
2021/12/01 09:31:29;;;;;;;2.83;1.67;;;;;;;;;;4993023;28;20526;-49
2021/12/01 09:33:55;;;;;;;2.27;2.07;;;;;;;;;;4992605;28;20408;-49
2021/12/01 09:36:21;;;;;;;1.97;1.87;;;;;;;;;;4992909;28;20398;-47
2021/12/01 09:38:47;;;;;;;1.90;1.80;;;;;;;;;;4992868;28;20416;-48
2021/12/01 09:41:13;;;;;;;2.20;1.70;;;;;;;;;;4992417;28;20474;-48
2021/12/01 09:43:39;;;;;;;1.80;1.70;;;;;;;;;;4992667;28;20437;-48
2021/12/01 09:46:08;;;;;;;2.13;2.03;;;;;;;;;;4992795;28;20406;-48
2021/12/01 09:48:34;;;;;;;2.53;2.43;;;;;;;;;;4993043;28;20453;-48
2021/12/01 09:51:00;;;;;;;1.90;1.80;;;;;;;;;;4992338;28;20430;-48
2021/12/01 09:53:26;;;;;;;2.20;2.00;;;;;;;;;;4992522;28;20429;-47
2021/12/01 09:55:52;;;;;;;1.90;1.80;;;;;;;;;;4992667;28;20401;-49
2021/12/01 09:58:19;;;;;;;1.90;1.80;;;;;;;;;;4992672;28;20942;-49
2021/12/01 10:00:50;;;;;;;4.97;2.10;;;;;;;;;;4993010;28;20432;-48
2021/12/01 10:03:17;;;;;;;2.07;1.97;;;;;;;;;;4975825;28;20421;-45
2021/12/01 10:05:52;;;;;;;1.80;1.70;;;;;;;;;;4993343;28;20464;-45
2021/12/01 10:08:30;;;;;;;2.40;2.27;;;;;;;;;;4992899;28;20563;-45
2021/12/01 10:10:56;;;;;;;1.87;1.77;;;;;;;;;;4992767;28;20419;-48
2021/12/01 10:13:33;;;;;;;2.23;2.03;;;;;;;;;;4993233;28;20417;-49
2021/12/01 10:16:01;;;;;;;3.10;2.00;;;;;;;;;;4993036;28;20393;-46
2021/12/01 10:18:28;;;;;;;2.47;2.27;;;;;;;;;;4991940;28;20420;-46
2021/12/01 10:21:02;;;;;;;2.43;2.23;;;;;;;;;;4992785;28;20464;-45
2021/12/01 10:23:28;;;;;;;2.30;2.10;;;;;;;;;;4993049;28;20859;-45
2021/12/01 10:25:56;;;;;;;5.73;2.10;;;;;;;;;;4993214;28;20403;-45
2021/12/01 10:28:33;;;;;;;1.90;1.80;;;;;;;;;;4992947;28;20456;-45
2021/12/01 10:30:59;;;;;;;2.77;2.40;;;;;;;;;;4992759;28;20800;-45
2021/12/01 10:33:25;;;;;;;2.47;2.30;;;;;;;;;;4992661;28;20832;-45
2021/12/01 10:35:50;;;;;;;1.77;1.67;;;;;;;;;;4992718;28;20484;-45
2021/12/01 10:38:25;;;;;;;2.50;2.30;;;;;;;;;;4992911;28;20911;-46
2021/12/01 10:41:01;;;;;;;4.40;2.73;;;;;;;;;;4992741;28;20416;-45
2021/12/01 10:43:35;;;;;;;3.27;2.40;;;;;;;;;;4992967;28;20409;-46
2021/12/01 10:46:06;;;;;;;1.90;1.80;;;;;;;;;;4993045;28;20412;-46
2021/12/01 10:48:32;;;;;;;2.07;1.97;;;;;;;;;;4991897;28;20466;-45
2021/12/01 10:50:58;;;;;;;2.33;2.13;;;;;;;;;;4992670;28;20423;-45
2021/12/01 10:53:25;;;;;;;2.27;1.60;;;;;;;;;;4992791;28;20424;-45
2021/12/01 10:55:53;;;;;;;5.37;1.93;;;;;;;;;;4986318;28;20473;-47
2021/12/01 10:58:19;;;;;;;2.53;2.40;;;;;;;;;;4992601;28;20411;-45
2021/12/01 11:00:49;;;;;;;1.77;1.67;;;;;;;;;;4992575;28;20458;-44
2021/12/01 11:03:17;;;;;;;2.17;2.07;;;;;;;;;;4992550;28;20415;-45
2021/12/01 11:05:44;;;;;;;2.10;2.00;;;;;;;;;;4992303;28;20418;-44
2021/12/01 11:08:10;;;;;;;2.20;2.10;;;;;;;;;;4993044;28;20466;-45
2021/12/01 11:10:36;;;;;;;2.63;2.43;;;;;;;;;;4992537;28;20468;-46
2021/12/01 11:13:04;;;;;;;2.93;2.30;;;;;;;;;;4991285;28;20451;-46
2021/12/01 11:15:31;;;;;;;1.83;1.73;;;;;;;;;;4992359;28;20414;-45
2021/12/01 11:17:58;;;;;;;1.83;1.73;;;;;;;;;;4992726;28;20415;-46
2021/12/01 11:20:44;;;;;;;2.27;2.17;;;;;;;;;;4992309;28;20511;-44
2021/12/01 11:23:15;;;;;;;2.00;1.90;;;;;;;;;;4993186;28;20410;-45
2021/12/01 11:25:42;;;;;;;2.00;1.90;;;;;;;;;;4996134;28;20904;-45
2021/12/01 11:28:08;;;;;;;1.50;1.40;;;;;;;;;;4995641;28;20500;-47
2021/12/01 11:30:36;;;;;;;1.70;1.60;;;;;;;;;;4995949;28;20450;-44
2021/12/01 11:33:02;;;;;;;1.43;1.33;;;;;;;;;;4996078;28;20399;-47
2021/12/01 11:35:29;;;;;;;1.70;1.60;;;;;;;;;;4996027;28;20411;-46
2021/12/01 11:37:55;;;;;;;4.80;1.57;;;;;;;;;;4995817;28;20489;-45
2021/12/01 11:40:26;;;;;;;1.97;1.77;;;;;;;;;;4995685;28;20426;-45
2021/12/01 11:42:52;;;;;;;1.50;1.40;;;;;;;;;;4996041;28;20485;-45
2021/12/01 11:45:19;;;;;;;1.60;1.50;;;;;;;;;;4995004;28;20415;-45
2021/12/01 11:47:48;;;;;;;1.70;1.57;;;;;;;;;;4994825;28;20462;-45
2021/12/01 11:50:18;;;;;;;1.30;1.20;;;;;;;;;;4995628;28;20407;-45
2021/12/01 11:53:03;;;;;;;2.30;1.63;;;;;;;;;;4995768;28;20428;-45
2021/12/01 11:55:58;;;;;;;4.97;1.73;;;;;;;;;;4995459;28;20407;-45
2021/12/01 11:58:42;;;;;;;1.50;1.40;;;;;;;;;;4966902;28;20413;-44
2021/12/01 12:01:28;;;;;;;1.60;1.50;;;;;;;;;;4995109;28;20466;-45
2021/12/01 12:03:53;;;;;;;1.93;1.83;;;;;;;;;;4995413;28;20413;-45
2021/12/01 12:06:19;;;;;;;1.60;1.50;;;;;;;;;;4995432;28;20407;-45
2021/12/01 12:08:54;;;;;;;1.90;1.80;;;;;;;;;;4995246;28;20471;-45
2021/12/01 12:11:47;;;;;;;2.40;2.20;;;;;;;;;;4994951;28;20422;-45
2021/12/01 12:14:14;;;;;;;2.53;2.33;;;;;;;;;;4965380;28;21092;-45
2021/12/01 12:16:42;;;;;;;2.03;1.93;;;;;;;;;;4995201;28;20411;-45
2021/12/01 12:19:08;;;;;;;2.50;2.30;;;;;;;;;;4995233;28;20805;-47
2021/12/01 12:21:48;;;;;;;2.73;2.60;;;;;;;;;;4994940;28;20926;-45
2021/12/01 12:24:20;;;;;;;2.50;2.30;;;;;;;;;;4995034;28;20398;-46
2021/12/01 12:26:52;;;;;;;3.93;2.87;;;;;;;;;;4995084;28;20431;-47
2021/12/01 12:29:26;;;;;;;7.67;2.80;;;;;;;;;;4994966;28;20411;-46
2021/12/01 12:31:53;;;;;;;3.23;2.90;;;;;;;;;;4995144;28;20413;-48
2021/12/01 12:34:20;;;;;;;8.30;3.20;;;;;;;;;;4993621;28;20410;-45
2021/12/01 12:36:46;;;;;;;2.90;2.20;;;;;;;;;;4994274;28;20402;-45
2021/12/01 12:39:19;;;;;;;2.80;2.60;;;;;;;;;;4994211;28;20486;-45
2021/12/01 12:42:04;;;;;;;4.07;2.83;;;;;;;;;;4994433;28;20422;-45
2021/12/01 12:44:30;;;;;;;7.60;2.97;;;;;;;;;;4994523;28;20473;-46
2021/12/01 12:47:03;;;;;;;5.23;3.00;;;;;;;;;;4994655;28;20564;-45
2021/12/01 12:49:47;;;;;;;3.03;2.73;;;;;;;;;;4994615;28;20430;-45
2021/12/01 12:52:25;;;;;;;8.40;2.70;;;;;;;;;;4994554;28;20429;-45
2021/12/01 12:54:52;;;;;;;5.83;2.70;;;;;;;;;;4994373;28;20393;-46
2021/12/01 12:57:18;;;;;;;3.00;2.40;;;;;;;;;;4994363;28;20411;-46
2021/12/01 12:59:44;;;;;;;3.33;2.70;;;;;;;;;;4994360;28;20410;-45
2021/12/01 13:02:10;;;;;;;6.90;3.27;;;;;;;;;;4994191;28;20424;-45
2021/12/01 13:07:26;;;;;;;5.17;2.97;;;;;;;;;;4994116;28;20475;-45
2021/12/01 13:10:11;;;;;;;2.87;2.57;;;;;;;;;;4994176;28;20786;-45
2021/12/01 13:12:54;;;;;;;8.03;2.07;;;;;;;;;;4993607;28;20398;-45
2021/12/01 13:15:21;;;;;;;3.33;2.43;;;;;;;;;;4993353;28;20402;-46
2021/12/01 13:17:48;;;;;;;3.50;2.40;;;;;;;;;;4993563;28;20990;-45
2021/12/01 13:20:16;;;;;;;5.80;2.13;;;;;;;;;;4987370;28;20422;-48
2021/12/01 13:22:42;;;;;;;2.50;2.30;;;;;;;;;;4993230;28;20398;-48
2021/12/01 13:25:16;;;;;;;3.37;3.07;;;;;;;;;;4993317;28;20957;-47
2021/12/01 13:27:45;;;;;;;2.13;1.93;;;;;;;;;;4993227;28;20484;-47
2021/12/01 13:30:11;;;;;;;6.03;2.63;;;;;;;;;;4992625;28;20426;-47
2021/12/01 13:32:37;;;;;;;3.60;2.70;;;;;;;;;;4993033;28;20453;-47
2021/12/01 13:35:04;;;;;;;5.53;2.63;;;;;;;;;;4993160;28;20403;-47
2021/12/01 13:37:30;;;;;;;5.60;2.60;;;;;;;;;;4992823;28;20432;-49
2021/12/01 13:39:56;;;;;;;5.73;2.10;;;;;;;;;;4992822;28;20416;-51
2021/12/01 13:42:24;;;;;;;5.57;2.10;;;;;;;;;;4989480;28;20433;-51
2021/12/01 13:44:51;;;;;;;11.70;2.70;;;;;;;;;;4992239;28;20451;-50
2021/12/01 13:47:17;;;;;;;2.40;2.20;;;;;;;;;;4992315;28;20454;-52
2021/12/01 13:49:48;;;;;;;9.50;1.90;;;;;;;;;;4992617;28;20901;-51
2021/12/01 13:52:26;;;;;;;9.50;2.27;;;;;;;;;;4991600;28;20992;-49
2021/12/01 13:54:53;;;;;;;2.20;1.80;;;;;;;;;;4991869;28;20398;-50
2021/12/01 13:57:19;;;;;;;3.07;1.77;;;;;;;;;;4991533;28;20402;-50
2021/12/01 13:59:45;;;;;;;5.60;1.87;;;;;;;;;;4992518;28;20405;-52
2021/12/01 14:02:11;;;;;;;3.00;1.63;;;;;;;;;;4992701;28;20437;-52
2021/12/01 14:04:38;;;;;;;1.87;1.77;;;;;;;;;;4992603;28;20500;-50
2021/12/01 14:07:07;;;;;;;4.40;1.80;;;;;;;;;;4992600;28;20536;-50
2021/12/01 14:10:02;;;;;;;2.40;1.57;;;;;;;;;;4992629;28;20460;-51
2021/12/01 14:12:32;;;;;;;4.03;2.37;;;;;;;;;;4906769;28;20447;-50
2021/12/01 14:14:59;;;;;;;3.17;1.50;;;;;;;;;;4992457;28;20834;-51
2021/12/01 14:17:25;;;;;;;6.90;2.13;;;;;;;;;;4992510;28;20420;-52
2021/12/01 14:19:55;;;;;;;4.13;1.87;;;;;;;;;;4992311;28;20446;-49
2021/12/01 14:22:22;;;;;;;6.20;1.73;;;;;;;;;;4992520;28;20518;-51
2021/12/01 14:24:55;;;;;;;2.60;1.50;;;;;;;;;;4992410;28;20501;-52
2021/12/01 14:27:28;;;;;;;3.60;1.77;;;;;;;;;;4992622;28;20449;-50
2021/12/01 14:29:58;;;;;;;3.10;1.77;;;;;;;;;;4992210;28;20434;-51
2021/12/01 14:32:25;;;;;;;2.10;1.90;;;;;;;;;;4992465;28;20405;-51
2021/12/01 14:34:52;;;;;;;2.27;2.00;;;;;;;;;;4992318;28;20457;-50
2021/12/01 14:37:18;;;;;;;3.70;1.93;;;;;;;;;;4992268;28;20407;-50
2021/12/01 14:39:44;;;;;;;3.10;2.00;;;;;;;;;;4992159;28;20912;-50
2021/12/01 14:42:11;;;;;;;10.37;2.20;;;;;;;;;;4992328;28;20910;-51
2021/12/01 14:44:38;;;;;;;3.80;2.17;;;;;;;;;;4992262;28;20980;-52
2021/12/01 14:47:06;;;;;;;3.17;2.20;;;;;;;;;;4988005;28;20548;-50
2021/12/01 14:49:42;;;;;;;3.67;2.60;;;;;;;;;;4992149;28;20508;-51
2021/12/01 14:52:10;;;;;;;4.37;2.80;;;;;;;;;;4992084;28;20433;-49
2021/12/01 14:54:38;;;;;;;7.27;2.90;;;;;;;;;;4992168;28;20412;-51